Terminal Aerodrome Forecast
Issued by NWS

Home | Current Version | Previous Version | Graphics & Text | Print | Product List | Glossary On
Versions: 1 2 3 4 5 6 7 8 9 10 11 12 13 14
000
FTUS43 KABR 241122
TAFMBG
TAF
KMBG 241122Z 2412/2512 31011KT P6SM BKN150
     FM241400 30017G24KT P6SM BKN050
     FM241700 31025G35KT P6SM FEW120
     FM242200 31018G25KT P6SM SKC
     FM250000 30009KT P6SM FEW250=

USA.gov is the U.S. government's official web portal to all federal, state and local government web resources and services.